sensor_id;sensor_type;location;lat;lon;timestamp;temperature;humidity
47382;DHT22;33128;51.580;5.170;2024-02-26T00:00:37;9.60;99.90
47382;DHT22;33128;51.580;5.170;2024-02-26T00:03:02;9.60;99.90
47382;DHT22;33128;51.580;5.170;2024-02-26T00:05:28;9.80;99.90
47382;DHT22;33128;51.580;5.170;2024-02-26T00:07:54;9.60;99.90
47382;DHT22;33128;51.580;5.170;2024-02-26T00:10:19;9.40;99.90
47382;DHT22;33128;51.580;5.170;2024-02-26T00:12:45;9.30;99.90
47382;DHT22;33128;51.580;5.170;2024-02-26T00:15:10;9.10;99.90
47382;DHT22;33128;51.580;5.170;2024-02-26T00:17:39;9.10;99.90
47382;DHT22;33128;51.580;5.170;2024-02-26T00:20:10;9.30;99.90
47382;DHT22;33128;51.580;5.170;2024-02-26T00:22:36;9.30;99.90
47382;DHT22;33128;51.580;5.170;2024-02-26T00:25:03;9.40;99.90
47382;DHT22;33128;51.580;5.170;2024-02-26T00:27:31;9.40;99.90
47382;DHT22;33128;51.580;5.170;2024-02-26T00:29:57;9.50;99.90
47382;DHT22;33128;51.580;5.170;2024-02-26T00:32:22;9.20;99.90
47382;DHT22;33128;51.580;5.170;2024-02-26T00:34:48;9.50;99.90
47382;DHT22;33128;51.580;5.170;2024-02-26T00:37:14;9.10;99.90
47382;DHT22;33128;51.580;5.170;2024-02-26T00:39:39;9.00;99.90
47382;DHT22;33128;51.580;5.170;2024-02-26T00:42:05;9.30;99.90
47382;DHT22;33128;51.580;5.170;2024-02-26T00:44:30;9.40;99.90
47382;DHT22;33128;51.580;5.170;2024-02-26T00:46:56;9.30;99.90
47382;DHT22;33128;51.580;5.170;2024-02-26T00:49:21;9.30;99.90
47382;DHT22;33128;51.580;5.170;2024-02-26T00:51:47;9.70;99.90
47382;DHT22;33128;51.580;5.170;2024-02-26T00:54:13;9.20;99.90
47382;DHT22;33128;51.580;5.170;2024-02-26T00:56:38;9.10;99.90
47382;DHT22;33128;51.580;5.170;2024-02-26T00:59:04;9.40;99.90
47382;DHT22;33128;51.580;5.170;2024-02-26T01:01:29;9.40;99.90
47382;DHT22;33128;51.580;5.170;2024-02-26T01:03:55;9.40;99.90
47382;DHT22;33128;51.580;5.170;2024-02-26T01:06:21;9.40;99.90
47382;DHT22;33128;51.580;5.170;2024-02-26T01:08:47;9.40;99.90
47382;DHT22;33128;51.580;5.170;2024-02-26T01:11:13;9.60;99.90
47382;DHT22;33128;51.580;5.170;2024-02-26T01:13:39;9.70;99.90
47382;DHT22;33128;51.580;5.170;2024-02-26T01:16:24;9.80;99.90
47382;DHT22;33128;51.580;5.170;2024-02-26T01:18:53;9.80;99.90
47382;DHT22;33128;51.580;5.170;2024-02-26T01:21:19;9.80;99.90
47382;DHT22;33128;51.580;5.170;2024-02-26T01:23:44;10.30;99.90
47382;DHT22;33128;51.580;5.170;2024-02-26T01:26:10;10.50;99.90
47382;DHT22;33128;51.580;5.170;2024-02-26T01:28:36;9.80;99.90
47382;DHT22;33128;51.580;5.170;2024-02-26T01:31:01;9.50;99.90
47382;DHT22;33128;51.580;5.170;2024-02-26T01:33:30;9.40;99.90
47382;DHT22;33128;51.580;5.170;2024-02-26T01:35:56;9.80;99.90
47382;DHT22;33128;51.580;5.170;2024-02-26T01:38:21;9.50;99.90
47382;DHT22;33128;51.580;5.170;2024-02-26T01:40:47;9.10;99.90
47382;DHT22;33128;51.580;5.170;2024-02-26T01:43:12;8.90;99.90
47382;DHT22;33128;51.580;5.170;2024-02-26T01:45:38;9.30;99.90
47382;DHT22;33128;51.580;5.170;2024-02-26T01:48:04;9.00;99.90
47382;DHT22;33128;51.580;5.170;2024-02-26T01:50:29;9.00;99.90
47382;DHT22;33128;51.580;5.170;2024-02-26T01:52:56;8.90;99.90
47382;DHT22;33128;51.580;5.170;2024-02-26T01:55:23;8.80;99.90
47382;DHT22;33128;51.580;5.170;2024-02-26T01:57:50;8.80;99.90
47382;DHT22;33128;51.580;5.170;2024-02-26T02:00:21;8.90;99.90
47382;DHT22;33128;51.580;5.170;2024-02-26T02:02:47;8.80;99.90
47382;DHT22;33128;51.580;5.170;2024-02-26T02:05:18;8.80;99.90
47382;DHT22;33128;51.580;5.170;2024-02-26T02:07:45;8.50;99.90
47382;DHT22;33128;51.580;5.170;2024-02-26T02:10:13;8.70;99.90
47382;DHT22;33128;51.580;5.170;2024-02-26T02:12:40;8.90;99.90
47382;DHT22;33128;51.580;5.170;2024-02-26T02:15:06;8.90;99.90
47382;DHT22;33128;51.580;5.170;2024-02-26T02:17:32;9.00;99.90
47382;DHT22;33128;51.580;5.170;2024-02-26T02:19:58;9.10;99.90
47382;DHT22;33128;51.580;5.170;2024-02-26T02:22:23;9.00;99.90
47382;DHT22;33128;51.580;5.170;2024-02-26T02:24:52;9.50;99.90
47382;DHT22;33128;51.580;5.170;2024-02-26T02:27:19;9.10;99.90
47382;DHT22;33128;51.580;5.170;2024-02-26T02:29:48;9.80;99.90
47382;DHT22;33128;51.580;5.170;2024-02-26T02:32:14;9.30;99.90
47382;DHT22;33128;51.580;5.170;2024-02-26T02:34:44;9.30;99.90
47382;DHT22;33128;51.580;5.170;2024-02-26T02:37:10;9.30;99.90
47382;DHT22;33128;51.580;5.170;2024-02-26T02:39:36;9.30;99.90
47382;DHT22;33128;51.580;5.170;2024-02-26T02:42:02;9.50;99.90
47382;DHT22;33128;51.580;5.170;2024-02-26T02:44:28;9.60;99.90
47382;DHT22;33128;51.580;5.170;2024-02-26T02:46:53;9.20;99.90
47382;DHT22;33128;51.580;5.170;2024-02-26T02:49:19;9.10;99.90
47382;DHT22;33128;51.580;5.170;2024-02-26T02:51:44;9.30;99.90
47382;DHT22;33128;51.580;5.170;2024-02-26T02:54:10;9.00;99.90
47382;DHT22;33128;51.580;5.170;2024-02-26T02:56:35;9.10;99.90
47382;DHT22;33128;51.580;5.170;2024-02-26T02:59:02;8.90;99.90
47382;DHT22;33128;51.580;5.170;2024-02-26T03:01:27;8.90;99.90
47382;DHT22;33128;51.580;5.170;2024-02-26T03:03:53;8.80;99.90
47382;DHT22;33128;51.580;5.170;2024-02-26T03:06:18;9.00;99.90
47382;DHT22;33128;51.580;5.170;2024-02-26T03:08:46;8.80;99.90
47382;DHT22;33128;51.580;5.170;2024-02-26T03:11:15;9.40;99.90
47382;DHT22;33128;51.580;5.170;2024-02-26T03:13:41;9.00;99.90
47382;DHT22;33128;51.580;5.170;2024-02-26T03:16:09;8.40;99.90
47382;DHT22;33128;51.580;5.170;2024-02-26T03:18:35;8.90;99.90
47382;DHT22;33128;51.580;5.170;2024-02-26T03:21:00;9.40;99.90
47382;DHT22;33128;51.580;5.170;2024-02-26T03:23:26;9.10;99.90
47382;DHT22;33128;51.580;5.170;2024-02-26T03:25:51;9.10;99.90
47382;DHT22;33128;51.580;5.170;2024-02-26T03:28:17;9.10;99.90
47382;DHT22;33128;51.580;5.170;2024-02-26T03:30:43;9.50;99.90
47382;DHT22;33128;51.580;5.170;2024-02-26T03:33:08;10.10;99.90
47382;DHT22;33128;51.580;5.170;2024-02-26T03:35:34;9.80;99.90
47382;DHT22;33128;51.580;5.170;2024-02-26T03:38:02;9.40;99.90
47382;DHT22;33128;51.580;5.170;2024-02-26T03:40:28;9.50;99.90
47382;DHT22;33128;51.580;5.170;2024-02-26T03:42:53;9.50;99.90
47382;DHT22;33128;51.580;5.170;2024-02-26T03:45:19;9.60;99.90
47382;DHT22;33128;51.580;5.170;2024-02-26T03:47:45;9.90;99.90
47382;DHT22;33128;51.580;5.170;2024-02-26T03:50:10;9.60;99.90
47382;DHT22;33128;51.580;5.170;2024-02-26T03:52:36;9.70;99.90
47382;DHT22;33128;51.580;5.170;2024-02-26T03:55:01;9.70;99.90
47382;DHT22;33128;51.580;5.170;2024-02-26T03:57:27;9.00;99.90
47382;DHT22;33128;51.580;5.170;2024-02-26T03:59:53;9.30;99.90
47382;DHT22;33128;51.580;5.170;2024-02-26T04:02:19;8.90;99.90
47382;DHT22;33128;51.580;5.170;2024-02-26T04:04:46;9.50;99.90
47382;DHT22;33128;51.580;5.170;2024-02-26T04:07:14;9.20;99.90
47382;DHT22;33128;51.580;5.170;2024-02-26T04:09:39;8.90;99.90
47382;DHT22;33128;51.580;5.170;2024-02-26T04:12:05;8.60;99.90
47382;DHT22;33128;51.580;5.170;2024-02-26T04:14:31;8.60;99.90
47382;DHT22;33128;51.580;5.170;2024-02-26T04:16:59;8.60;99.90
47382;DHT22;33128;51.580;5.170;2024-02-26T04:19:25;8.60;99.90
47382;DHT22;33128;51.580;5.170;2024-02-26T04:21:53;8.70;99.90
47382;DHT22;33128;51.580;5.170;2024-02-26T04:24:19;9.40;99.90
47382;DHT22;33128;51.580;5.170;2024-02-26T04:26:45;9.40;99.90
47382;DHT22;33128;51.580;5.170;2024-02-26T04:29:10;9.30;99.90
47382;DHT22;33128;51.580;5.170;2024-02-26T04:31:40;9.10;99.90
47382;DHT22;33128;51.580;5.170;2024-02-26T04:34:08;9.00;99.90
47382;DHT22;33128;51.580;5.170;2024-02-26T04:36:33;9.20;99.90
47382;DHT22;33128;51.580;5.170;2024-02-26T04:38:59;9.60;99.90
47382;DHT22;33128;51.580;5.170;2024-02-26T04:41:24;9.30;99.90
47382;DHT22;33128;51.580;5.170;2024-02-26T04:43:53;9.20;99.90
47382;DHT22;33128;51.580;5.170;2024-02-26T04:46:18;8.80;99.90
47382;DHT22;33128;51.580;5.170;2024-02-26T04:48:44;8.50;99.90
47382;DHT22;33128;51.580;5.170;2024-02-26T04:51:12;9.10;99.90
47382;DHT22;33128;51.580;5.170;2024-02-26T04:53:37;9.30;99.90
47382;DHT22;33128;51.580;5.170;2024-02-26T04:56:03;9.70;99.90
47382;DHT22;33128;51.580;5.170;2024-02-26T04:58:29;9.60;99.90
47382;DHT22;33128;51.580;5.170;2024-02-26T05:00:54;9.80;99.90
47382;DHT22;33128;51.580;5.170;2024-02-26T05:03:21;9.90;99.90
47382;DHT22;33128;51.580;5.170;2024-02-26T05:05:46;9.80;99.90
47382;DHT22;33128;51.580;5.170;2024-02-26T05:08:12;10.10;99.90
47382;DHT22;33128;51.580;5.170;2024-02-26T05:10:38;10.30;99.90
47382;DHT22;33128;51.580;5.170;2024-02-26T05:13:09;10.00;99.90
47382;DHT22;33128;51.580;5.170;2024-02-26T05:15:39;9.70;99.90
47382;DHT22;33128;51.580;5.170;2024-02-26T05:18:05;9.60;99.90
47382;DHT22;33128;51.580;5.170;2024-02-26T05:20:30;9.50;99.90
47382;DHT22;33128;51.580;5.170;2024-02-26T05:23:05;9.50;99.90
47382;DHT22;33128;51.580;5.170;2024-02-26T05:25:31;9.70;99.90
47382;DHT22;33128;51.580;5.170;2024-02-26T05:27:56;9.80;99.90
47382;DHT22;33128;51.580;5.170;2024-02-26T05:30:22;9.80;99.90
47382;DHT22;33128;51.580;5.170;2024-02-26T05:32:47;10.00;99.90
47382;DHT22;33128;51.580;5.170;2024-02-26T05:35:15;9.90;99.90
47382;DHT22;33128;51.580;5.170;2024-02-26T05:37:41;9.90;99.90
47382;DHT22;33128;51.580;5.170;2024-02-26T05:40:07;10.20;99.90
47382;DHT22;33128;51.580;5.170;2024-02-26T05:42:33;9.90;99.90
47382;DHT22;33128;51.580;5.170;2024-02-26T05:44:59;10.00;99.90
47382;DHT22;33128;51.580;5.170;2024-02-26T05:47:24;10.20;99.90
47382;DHT22;33128;51.580;5.170;2024-02-26T05:49:52;10.20;99.90
47382;DHT22;33128;51.580;5.170;2024-02-26T05:52:18;10.30;99.90
47382;DHT22;33128;51.580;5.170;2024-02-26T05:54:44;10.50;99.90
47382;DHT22;33128;51.580;5.170;2024-02-26T05:57:09;10.20;99.90
47382;DHT22;33128;51.580;5.170;2024-02-26T05:59:35;9.90;99.90
47382;DHT22;33128;51.580;5.170;2024-02-26T06:02:00;10.00;99.90
47382;DHT22;33128;51.580;5.170;2024-02-26T06:04:26;10.00;99.90
47382;DHT22;33128;51.580;5.170;2024-02-26T06:06:52;10.20;99.90
47382;DHT22;33128;51.580;5.170;2024-02-26T06:09:17;10.60;99.90
47382;DHT22;33128;51.580;5.170;2024-02-26T06:11:43;10.90;99.90
47382;DHT22;33128;51.580;5.170;2024-02-26T06:14:08;10.30;99.90
47382;DHT22;33128;51.580;5.170;2024-02-26T06:16:35;10.70;99.90
47382;DHT22;33128;51.580;5.170;2024-02-26T06:19:01;10.60;99.90
47382;DHT22;33128;51.580;5.170;2024-02-26T06:21:26;10.90;99.90
47382;DHT22;33128;51.580;5.170;2024-02-26T06:23:52;11.20;99.90
47382;DHT22;33128;51.580;5.170;2024-02-26T06:26:18;11.60;99.90
47382;DHT22;33128;51.580;5.170;2024-02-26T06:28:43;11.70;99.90
47382;DHT22;33128;51.580;5.170;2024-02-26T06:31:10;11.70;99.90
47382;DHT22;33128;51.580;5.170;2024-02-26T06:33:35;11.70;99.90
47382;DHT22;33128;51.580;5.170;2024-02-26T06:36:04;11.50;99.90
47382;DHT22;33128;51.580;5.170;2024-02-26T06:38:30;11.10;99.90
47382;DHT22;33128;51.580;5.170;2024-02-26T06:40:55;10.60;99.90
47382;DHT22;33128;51.580;5.170;2024-02-26T06:43:24;9.90;99.90
47382;DHT22;33128;51.580;5.170;2024-02-26T06:45:50;10.00;99.90
47382;DHT22;33128;51.580;5.170;2024-02-26T06:48:15;10.00;99.90
47382;DHT22;33128;51.580;5.170;2024-02-26T06:50:41;10.30;99.90
47382;DHT22;33128;51.580;5.170;2024-02-26T06:53:07;11.20;99.90
47382;DHT22;33128;51.580;5.170;2024-02-26T06:55:32;10.50;99.90
47382;DHT22;33128;51.580;5.170;2024-02-26T06:57:58;9.60;99.90
47382;DHT22;33128;51.580;5.170;2024-02-26T07:00:24;9.80;99.90
47382;DHT22;33128;51.580;5.170;2024-02-26T07:02:49;10.60;99.90
47382;DHT22;33128;51.580;5.170;2024-02-26T07:05:17;10.10;99.90
47382;DHT22;33128;51.580;5.170;2024-02-26T07:07:43;10.50;99.90
47382;DHT22;33128;51.580;5.170;2024-02-26T07:10:09;9.80;99.90
47382;DHT22;33128;51.580;5.170;2024-02-26T07:12:38;10.60;99.90
47382;DHT22;33128;51.580;5.170;2024-02-26T07:15:04;10.00;99.90
47382;DHT22;33128;51.580;5.170;2024-02-26T07:17:30;10.20;99.90
47382;DHT22;33128;51.580;5.170;2024-02-26T07:19:56;10.10;99.90
47382;DHT22;33128;51.580;5.170;2024-02-26T07:22:22;10.10;99.90
47382;DHT22;33128;51.580;5.170;2024-02-26T07:24:47;9.30;99.90
47382;DHT22;33128;51.580;5.170;2024-02-26T07:27:13;9.20;99.90
47382;DHT22;33128;51.580;5.170;2024-02-26T07:29:38;9.10;99.90
47382;DHT22;33128;51.580;5.170;2024-02-26T07:32:05;9.10;99.90
47382;DHT22;33128;51.580;5.170;2024-02-26T07:34:30;9.60;99.90
47382;DHT22;33128;51.580;5.170;2024-02-26T07:36:56;10.20;99.90
47382;DHT22;33128;51.580;5.170;2024-02-26T07:39:22;10.20;99.90
47382;DHT22;33128;51.580;5.170;2024-02-26T07:41:50;10.90;99.90
47382;DHT22;33128;51.580;5.170;2024-02-26T07:44:18;10.70;99.90
47382;DHT22;33128;51.580;5.170;2024-02-26T07:46:44;9.60;99.90
47382;DHT22;33128;51.580;5.170;2024-02-26T07:49:10;10.10;99.90
47382;DHT22;33128;51.580;5.170;2024-02-26T07:51:35;10.30;99.90
47382;DHT22;33128;51.580;5.170;2024-02-26T07:54:01;11.10;99.90
47382;DHT22;33128;51.580;5.170;2024-02-26T07:56:27;10.50;99.90
47382;DHT22;33128;51.580;5.170;2024-02-26T07:58:52;10.50;99.90
47382;DHT22;33128;51.580;5.170;2024-02-26T08:01:18;10.30;99.90
47382;DHT22;33128;51.580;5.170;2024-02-26T08:03:44;9.70;99.90
47382;DHT22;33128;51.580;5.170;2024-02-26T08:06:09;9.70;99.90
47382;DHT22;33128;51.580;5.170;2024-02-26T08:08:35;10.10;99.90
47382;DHT22;33128;51.580;5.170;2024-02-26T08:11:00;9.80;99.90
47382;DHT22;33128;51.580;5.170;2024-02-26T08:13:26;9.10;99.90
47382;DHT22;33128;51.580;5.170;2024-02-26T08:15:52;9.70;99.90
47382;DHT22;33128;51.580;5.170;2024-02-26T08:18:18;9.90;99.90
47382;DHT22;33128;51.580;5.170;2024-02-26T08:20:44;10.00;99.90
47382;DHT22;33128;51.580;5.170;2024-02-26T08:23:13;10.50;99.90
47382;DHT22;33128;51.580;5.170;2024-02-26T08:25:38;10.00;99.90
47382;DHT22;33128;51.580;5.170;2024-02-26T08:28:04;9.90;99.90
47382;DHT22;33128;51.580;5.170;2024-02-26T08:30:30;10.40;99.90
47382;DHT22;33128;51.580;5.170;2024-02-26T08:32:56;10.70;99.90
47382;DHT22;33128;51.580;5.170;2024-02-26T08:35:22;9.90;99.90
47382;DHT22;33128;51.580;5.170;2024-02-26T08:37:48;10.20;99.90
47382;DHT22;33128;51.580;5.170;2024-02-26T08:40:16;9.70;99.90
47382;DHT22;33128;51.580;5.170;2024-02-26T08:42:45;9.80;99.90
47382;DHT22;33128;51.580;5.170;2024-02-26T08:45:11;9.00;99.90
47382;DHT22;33128;51.580;5.170;2024-02-26T08:47:40;8.90;99.90
47382;DHT22;33128;51.580;5.170;2024-02-26T08:50:06;9.20;99.90
47382;DHT22;33128;51.580;5.170;2024-02-26T08:52:34;8.90;99.90
47382;DHT22;33128;51.580;5.170;2024-02-26T08:55:00;9.20;99.90
47382;DHT22;33128;51.580;5.170;2024-02-26T08:57:26;9.60;99.90
47382;DHT22;33128;51.580;5.170;2024-02-26T08:59:52;10.20;99.90
47382;DHT22;33128;51.580;5.170;2024-02-26T09:02:18;10.10;99.90
47382;DHT22;33128;51.580;5.170;2024-02-26T09:04:45;10.30;99.90
47382;DHT22;33128;51.580;5.170;2024-02-26T09:07:10;10.80;99.90
47382;DHT22;33128;51.580;5.170;2024-02-26T09:09:36;10.60;99.90
47382;DHT22;33128;51.580;5.170;2024-02-26T09:12:02;10.20;99.90
47382;DHT22;33128;51.580;5.170;2024-02-26T09:14:31;10.30;99.90
47382;DHT22;33128;51.580;5.170;2024-02-26T09:17:16;10.10;99.90
47382;DHT22;33128;51.580;5.170;2024-02-26T09:19:41;8.30;99.90
47382;DHT22;33128;51.580;5.170;2024-02-26T09:22:07;7.30;99.90
47382;DHT22;33128;51.580;5.170;2024-02-26T09:24:33;7.20;99.90
47382;DHT22;33128;51.580;5.170;2024-02-26T09:26:59;7.40;99.90
47382;DHT22;33128;51.580;5.170;2024-02-26T09:29:24;7.40;99.90
47382;DHT22;33128;51.580;5.170;2024-02-26T09:31:51;7.50;99.90
47382;DHT22;33128;51.580;5.170;2024-02-26T09:34:17;7.50;99.90
47382;DHT22;33128;51.580;5.170;2024-02-26T09:36:43;8.20;99.90
47382;DHT22;33128;51.580;5.170;2024-02-26T09:39:09;7.60;99.90
47382;DHT22;33128;51.580;5.170;2024-02-26T09:41:37;7.20;99.90
47382;DHT22;33128;51.580;5.170;2024-02-26T09:44:03;7.70;99.90
47382;DHT22;33128;51.580;5.170;2024-02-26T09:46:30;7.40;99.90
47382;DHT22;33128;51.580;5.170;2024-02-26T09:48:56;7.70;99.90
47382;DHT22;33128;51.580;5.170;2024-02-26T09:51:26;8.20;99.90
47382;DHT22;33128;51.580;5.170;2024-02-26T09:53:52;7.80;99.90
47382;DHT22;33128;51.580;5.170;2024-02-26T09:56:18;7.70;99.90
47382;DHT22;33128;51.580;5.170;2024-02-26T09:58:44;7.40;99.90
47382;DHT22;33128;51.580;5.170;2024-02-26T10:01:18;7.70;99.90
47382;DHT22;33128;51.580;5.170;2024-02-26T10:03:44;7.60;99.90
47382;DHT22;33128;51.580;5.170;2024-02-26T10:06:13;7.90;99.90
47382;DHT22;33128;51.580;5.170;2024-02-26T10:08:39;7.60;99.90
47382;DHT22;33128;51.580;5.170;2024-02-26T10:11:07;7.60;99.90
47382;DHT22;33128;51.580;5.170;2024-02-26T10:13:35;7.90;99.90
47382;DHT22;33128;51.580;5.170;2024-02-26T10:16:01;8.10;99.90
47382;DHT22;33128;51.580;5.170;2024-02-26T10:18:45;8.10;99.90
47382;DHT22;33128;51.580;5.170;2024-02-26T10:21:10;7.90;99.90
47382;DHT22;33128;51.580;5.170;2024-02-26T10:23:36;7.80;99.90
47382;DHT22;33128;51.580;5.170;2024-02-26T10:26:05;7.60;99.90
47382;DHT22;33128;51.580;5.170;2024-02-26T10:28:30;11.90;99.90
47382;DHT22;33128;51.580;5.170;2024-02-26T10:30:56;9.40;99.90
47382;DHT22;33128;51.580;5.170;2024-02-26T10:33:22;8.30;99.90
47382;DHT22;33128;51.580;5.170;2024-02-26T10:35:48;7.80;99.90
47382;DHT22;33128;51.580;5.170;2024-02-26T10:38:13;7.70;99.90
47382;DHT22;33128;51.580;5.170;2024-02-26T10:40:45;7.90;99.90
47382;DHT22;33128;51.580;5.170;2024-02-26T10:43:10;7.40;99.90
47382;DHT22;33128;51.580;5.170;2024-02-26T10:45:36;7.20;99.90
47382;DHT22;33128;51.580;5.170;2024-02-26T10:48:02;7.30;99.90
47382;DHT22;33128;51.580;5.170;2024-02-26T10:50:28;7.20;99.90
47382;DHT22;33128;51.580;5.170;2024-02-26T10:52:55;7.20;99.90
47382;DHT22;33128;51.580;5.170;2024-02-26T10:55:21;7.30;99.90
47382;DHT22;33128;51.580;5.170;2024-02-26T10:57:48;7.10;99.90
47382;DHT22;33128;51.580;5.170;2024-02-26T11:00:22;7.50;99.90
47382;DHT22;33128;51.580;5.170;2024-02-26T11:02:48;7.30;99.90
47382;DHT22;33128;51.580;5.170;2024-02-26T11:05:14;7.30;99.90
47382;DHT22;33128;51.580;5.170;2024-02-26T11:07:41;7.50;99.90
47382;DHT22;33128;51.580;5.170;2024-02-26T11:10:08;7.20;99.90
47382;DHT22;33128;51.580;5.170;2024-02-26T11:12:39;7.10;99.90
47382;DHT22;33128;51.580;5.170;2024-02-26T11:15:05;7.20;99.90
47382;DHT22;33128;51.580;5.170;2024-02-26T11:17:31;8.00;99.90
47382;DHT22;33128;51.580;5.170;2024-02-26T11:19:59;8.00;99.90
47382;DHT22;33128;51.580;5.170;2024-02-26T11:22:25;8.30;99.90
47382;DHT22;33128;51.580;5.170;2024-02-26T11:24:55;7.70;99.90
47382;DHT22;33128;51.580;5.170;2024-02-26T11:27:26;7.60;99.90
47382;DHT22;33128;51.580;5.170;2024-02-26T11:29:56;7.60;99.90
47382;DHT22;33128;51.580;5.170;2024-02-26T11:32:27;8.80;99.90
47382;DHT22;33128;51.580;5.170;2024-02-26T11:34:56;8.40;99.90
47382;DHT22;33128;51.580;5.170;2024-02-26T11:37:22;8.20;99.90
47382;DHT22;33128;51.580;5.170;2024-02-26T11:39:48;7.90;99.90
47382;DHT22;33128;51.580;5.170;2024-02-26T11:42:24;8.10;99.90
47382;DHT22;33128;51.580;5.170;2024-02-26T11:44:54;8.30;99.90
47382;DHT22;33128;51.580;5.170;2024-02-26T11:47:22;8.40;99.90
47382;DHT22;33128;51.580;5.170;2024-02-26T11:49:51;8.20;99.90
47382;DHT22;33128;51.580;5.170;2024-02-26T11:52:22;7.90;99.90
47382;DHT22;33128;51.580;5.170;2024-02-26T11:54:56;8.40;99.90
47382;DHT22;33128;51.580;5.170;2024-02-26T12:00:13;8.30;99.90
47382;DHT22;33128;51.580;5.170;2024-02-26T12:02:50;8.20;99.90
47382;DHT22;33128;51.580;5.170;2024-02-26T12:05:27;8.20;99.90
47382;DHT22;33128;51.580;5.170;2024-02-26T12:08:03;8.10;99.90
47382;DHT22;33128;51.580;5.170;2024-02-26T12:10:34;9.00;99.90
47382;DHT22;33128;51.580;5.170;2024-02-26T12:13:10;8.50;99.90
47382;DHT22;33128;51.580;5.170;2024-02-26T12:15:39;8.20;99.90
47382;DHT22;33128;51.580;5.170;2024-02-26T12:18:06;8.50;99.90
47382;DHT22;33128;51.580;5.170;2024-02-26T12:20:39;7.90;99.90
47382;DHT22;33128;51.580;5.170;2024-02-26T12:23:05;8.00;99.90
47382;DHT22;33128;51.580;5.170;2024-02-26T12:25:31;8.10;99.90
47382;DHT22;33128;51.580;5.170;2024-02-26T12:27:58;8.40;99.90
47382;DHT22;33128;51.580;5.170;2024-02-26T12:30:24;8.80;99.90
47382;DHT22;33128;51.580;5.170;2024-02-26T12:32:52;8.20;99.90
47382;DHT22;33128;51.580;5.170;2024-02-26T12:35:21;8.30;99.90
47382;DHT22;33128;51.580;5.170;2024-02-26T12:37:46;8.30;99.90
47382;DHT22;33128;51.580;5.170;2024-02-26T12:40:12;8.20;99.90
47382;DHT22;33128;51.580;5.170;2024-02-26T12:42:38;7.90;99.90
47382;DHT22;33128;51.580;5.170;2024-02-26T12:45:12;8.00;99.90
47382;DHT22;33128;51.580;5.170;2024-02-26T12:47:42;8.00;99.90
47382;DHT22;33128;51.580;5.170;2024-02-26T12:50:09;8.10;99.90
47382;DHT22;33128;51.580;5.170;2024-02-26T12:52:37;7.80;99.90
47382;DHT22;33128;51.580;5.170;2024-02-26T12:55:07;8.40;99.90
47382;DHT22;33128;51.580;5.170;2024-02-26T12:57:37;8.00;99.90
47382;DHT22;33128;51.580;5.170;2024-02-26T13:00:06;8.00;99.90
47382;DHT22;33128;51.580;5.170;2024-02-26T13:02:36;8.00;99.90
47382;DHT22;33128;51.580;5.170;2024-02-26T13:05:03;8.40;99.90
47382;DHT22;33128;51.580;5.170;2024-02-26T13:07:30;8.00;99.90
47382;DHT22;33128;51.580;5.170;2024-02-26T13:09:56;8.30;99.90
47382;DHT22;33128;51.580;5.170;2024-02-26T13:12:22;8.50;99.90
47382;DHT22;33128;51.580;5.170;2024-02-26T13:14:57;8.30;99.90
47382;DHT22;33128;51.580;5.170;2024-02-26T13:17:23;8.80;99.90
47382;DHT22;33128;51.580;5.170;2024-02-26T13:19:50;9.70;99.90
47382;DHT22;33128;51.580;5.170;2024-02-26T13:22:16;9.90;99.90
47382;DHT22;33128;51.580;5.170;2024-02-26T13:24:42;9.40;99.90
47382;DHT22;33128;51.580;5.170;2024-02-26T13:27:08;9.80;99.90
47382;DHT22;33128;51.580;5.170;2024-02-26T13:29:33;9.30;99.90
47382;DHT22;33128;51.580;5.170;2024-02-26T13:31:59;8.50;99.90
47382;DHT22;33128;51.580;5.170;2024-02-26T13:34:28;8.70;99.90
47382;DHT22;33128;51.580;5.170;2024-02-26T13:36:56;8.10;99.90
47382;DHT22;33128;51.580;5.170;2024-02-26T13:39:28;9.10;99.90
47382;DHT22;33128;51.580;5.170;2024-02-26T13:41:54;8.70;99.90
47382;DHT22;33128;51.580;5.170;2024-02-26T13:44:23;8.50;99.90
47382;DHT22;33128;51.580;5.170;2024-02-26T13:46:49;8.40;99.90
47382;DHT22;33128;51.580;5.170;2024-02-26T13:49:15;8.50;99.90
47382;DHT22;33128;51.580;5.170;2024-02-26T13:51:41;8.40;99.90
47382;DHT22;33128;51.580;5.170;2024-02-26T13:54:07;8.40;99.90
47382;DHT22;33128;51.580;5.170;2024-02-26T13:56:33;9.20;99.90
47382;DHT22;33128;51.580;5.170;2024-02-26T13:58:59;9.10;99.90
47382;DHT22;33128;51.580;5.170;2024-02-26T14:01:25;8.60;99.90
47382;DHT22;33128;51.580;5.170;2024-02-26T14:03:50;7.80;99.90
47382;DHT22;33128;51.580;5.170;2024-02-26T14:06:16;8.40;99.90
47382;DHT22;33128;51.580;5.170;2024-02-26T14:08:42;8.50;99.90
47382;DHT22;33128;51.580;5.170;2024-02-26T14:11:11;9.20;99.90
47382;DHT22;33128;51.580;5.170;2024-02-26T14:13:36;9.60;99.90
47382;DHT22;33128;51.580;5.170;2024-02-26T14:16:02;12.20;99.90
47382;DHT22;33128;51.580;5.170;2024-02-26T14:18:30;13.90;99.90
47382;DHT22;33128;51.580;5.170;2024-02-26T14:20:56;14.20;99.90
47382;DHT22;33128;51.580;5.170;2024-02-26T14:23:21;15.00;99.90
47382;DHT22;33128;51.580;5.170;2024-02-26T14:25:47;14.70;99.90
47382;DHT22;33128;51.580;5.170;2024-02-26T14:28:12;14.10;99.90
47382;DHT22;33128;51.580;5.170;2024-02-26T14:30:38;13.90;99.90
47382;DHT22;33128;51.580;5.170;2024-02-26T14:33:04;13.70;99.90
47382;DHT22;33128;51.580;5.170;2024-02-26T14:35:30;13.70;99.90
47382;DHT22;33128;51.580;5.170;2024-02-26T14:37:56;13.70;99.90
47382;DHT22;33128;51.580;5.170;2024-02-26T14:40:26;13.60;99.90
47382;DHT22;33128;51.580;5.170;2024-02-26T14:42:51;13.60;99.90
47382;DHT22;33128;51.580;5.170;2024-02-26T14:45:17;13.60;99.90
47382;DHT22;33128;51.580;5.170;2024-02-26T14:47:43;13.70;99.90
47382;DHT22;33128;51.580;5.170;2024-02-26T14:50:08;13.60;99.90
47382;DHT22;33128;51.580;5.170;2024-02-26T14:52:34;13.70;99.90
47382;DHT22;33128;51.580;5.170;2024-02-26T14:54:59;13.70;99.90
47382;DHT22;33128;51.580;5.170;2024-02-26T14:57:25;13.70;99.90
47382;DHT22;33128;51.580;5.170;2024-02-26T14:59:51;13.70;99.90
47382;DHT22;33128;51.580;5.170;2024-02-26T15:02:17;13.70;99.90
47382;DHT22;33128;51.580;5.170;2024-02-26T15:04:45;13.80;99.90
47382;DHT22;33128;51.580;5.170;2024-02-26T15:07:10;13.70;99.90
47382;DHT22;33128;51.580;5.170;2024-02-26T15:09:37;13.70;99.90
47382;DHT22;33128;51.580;5.170;2024-02-26T15:12:03;13.70;99.90
47382;DHT22;33128;51.580;5.170;2024-02-26T15:14:32;13.70;99.90
47382;DHT22;33128;51.580;5.170;2024-02-26T15:16:57;13.80;99.90
47382;DHT22;33128;51.580;5.170;2024-02-26T15:19:23;13.80;99.90
47382;DHT22;33128;51.580;5.170;2024-02-26T15:21:49;13.80;99.90
47382;DHT22;33128;51.580;5.170;2024-02-26T15:24:14;13.80;99.90
47382;DHT22;33128;51.580;5.170;2024-02-26T15:26:44;13.80;99.90
47382;DHT22;33128;51.580;5.170;2024-02-26T15:29:09;13.90;99.90
47382;DHT22;33128;51.580;5.170;2024-02-26T15:31:36;13.80;99.90
47382;DHT22;33128;51.580;5.170;2024-02-26T15:34:02;13.80;99.90
47382;DHT22;33128;51.580;5.170;2024-02-26T15:36:28;13.80;99.90
47382;DHT22;33128;51.580;5.170;2024-02-26T15:38:56;13.90;99.90
47382;DHT22;33128;51.580;5.170;2024-02-26T15:41:25;13.80;99.90